Hauptseite
METAR-TAF:

METAR-TAF

Flughäfen :

Hawarden Airport

Hawarden, Wales

Breite: 53-10N, Länge: 002-59W, Höhe: 10 m

Beobachtung

Neuester Wetterbericht von vor 1 Stunde und 0 Minuten, um 18:20 UTC
Wind 3 kt aus unterschiedlichen Richtungen
Temperatur 13°C
Luftfeuchtigkeit 67%
Luftdruck 1013 hPa
Sichtweite 10 km oder mehr
Aufgelockert bewölkt in der Höhe von 4000 ft

METAR: EGNR 181820Z VRB03KT 9999 SCT040 13/07 Q1013

Zeit: 20:20 (19:20 UTC)

Prognose

Neuester Wetterbericht von vor 2 Stunden und 16 Minuten, um 17:04 UTC
Gültige Prognose vom 18 um 18 UTC bis 18 um 20 UTC
Wind 5 kt aus West/Südwest
Sichtweite 10 km oder mehr
Leicht bewölkt in der Höhe von 3000 ft
Zeitweise
vom 18 um 18 UTC bis 18 um 20 UTC
Sichtweite: 6000 m
Regenschauer

TAF: EGNR 181704Z 1818/1820 25005KT 9999 FEW030 TEMPO 1818/1820 6000 SHRA

Wetterbeobachtungen und Prognosen von mehr als 4000 Flughäfen (METAR und TAF Bericht).

Die verfügbaren Stationen werden durch gelbe und rote Markierungen auf der Karte dargestellt.

Führen Sie die Maus auf sie, um den Namen der Station zu sehen.

Darauf klicken, um die Beobachtung von Wetterbeobachtungen und Prognosen zu sehen.

Um die Karte zu ändern : klicken Sie auf den grünen Tasten mit einem schwarzen Kreuz Zum Vergrößern, auf den grünen Button mit einem Gedankenstrich zu verkleinern, oder auf die grünen Pfeile für benachbarte Karten.


METAR-TAF: